Pagrindinis puslapis
METAR-TAF:

METAR-TAF

Oro uostai :

Krasnojarskas, Rusija

platuma: 56-10-18N, ilguma: 092-29-36E, Aukštis: 287 m

Dabartinis oras

Ataskaita buvo paskelbta 47 minutes, ne 07:00 UTC
Vėjas 14 kt iš Vakarų/Pietvakarių su gūsio iki 31 kt
Temperatūra 13°C
Drėgmė 72%
Slėgis 1003 hPa
Matomumas 10 km arba daugiau
Išsisklaidę debesys ne aukštis 2400 ft, Liūtiniai kamuoliniai debesys.

METAR: UNKL 190700Z 25007G16MPS 9999 SCT024CB 13/08 Q1003 R29/CLRD65 NOSIG RMK QFE727

Laikas: 14:47 (07:47 UTC)

Prognozė

Ataskaita buvo paskelbta 2 valandos ir 55 minutes, ne 04:52 UTC
Prognozė galioja nuo 19 metu 06 UTC su 20 metu 06 UTC
Vėjas 16 kt iš Vakarų su gūsio iki 37 kt
Matomumas 10 km arba daugiau
Su prošvaistėmis ne aukštis 1600 ft, Liūtiniai kamuoliniai debesys.
Tapsmas
nuo 19 metu 12 UTC su 19 metu 15 UTC
Vėjas 6 kt iš Pietvakarių su gūsio iki 16 kt
Tapsmas
nuo 20 metu 00 UTC su 20 metu 04 UTC
Vėjas 16 kt iš Vakarų su gūsio iki 31 kt

TAF: UNKL 190452Z 1906/2006 26008G19MPS 9999 BKN016CB BECMG 1912/1915 23003G08MPS BECMG 2000/2004 26008G16MPS

Orai ataskaitas ir orų prognozės (METAR, TAF).

turimą stotys yra geltonos ir raudonos taškus žemėlapyje.

Perkelti pele per norėdami pamatyti stoties vardą.

Tada spustelėkite, norėdami matyti oro stebėjimo ir prognozės.

Norėdami pakeisti žemėlapį: spustelėkite ant žalios mygtukų su juodo kryžiaus žemyn,; žalią mygtuką su brūkšneliu, jei norite nutolinti; arba žalių rodyklių gretimoms žemėlapius.


METAR-TAF: